Huvudsida
METAR-TAF:

METAR-TAF

Flygplatser :

Ajaccio, Frankrike

latitud: 41-55N, longitud: 008-48E, höjd: 6 m

Aktuellt väderrapport

Denna rapport gjordes för 39 minuter sedan, klockan 04:30 UTC
Vind 8 kt från nordost
Temperatur 11°C
Fuktighet 76%
Tryck 1018 hPa
Sikt 10 km eller mer
Mulet på en höjd av 4400 ft

METAR: LFKJ 160430Z AUTO 04008KT 9999 OVC044 11/07 Q1018 NOSIG

Tid: 06:09 (05:09 UTC)

Väderprognos

Denna rapport gjordes för 3 timmar och 9 minuter sedan, klockan 02:00 UTC
Prognos gäller från 16 kl. 03 UTC till 17 kl. 03 UTC
Vind 6 kt från nordost
Sikt 10 km eller mer
Brutna moln på en höjd av 4000 ft
Blir
från 16 kl. 06 UTC till 16 kl. 08 UTC
Sikt 10 km eller mer
Inga moln under 1 500 m eller inga cumulonimbus
Blir
från 16 kl. 10 UTC till 16 kl. 12 UTC
Vind 6 kt från sydväst
Blir
från 16 kl. 18 UTC till 16 kl. 20 UTC
Vind 10 kt från ost/nordost

TAF: LFKJ 160200Z 1603/1703 05006KT 9999 BKN040 BECMG 1606/1608 CAVOK BECMG 1610/1612 22006KT BECMG 1618/1620 06010KT

Aktuella väderrapporter och prognoser från 4000 flygplatser (METAR- och TAF-rapporter).

De tillgängliga stationerna syns som gula och röda prickar på kartan.

För musen över prickarna för att se namnen på stationerna.

Klicka sedan för att få väderrapporter och prognoser.

För att ändra kartan: Klicka på de gröna knapparna med ett svart kors på för att zooma in; den gröna knappen med ett streck på för att zooma ut; eller på de gröna pilarna för angränsande kartor.


METAR-TAF: